createdAt,value
2018-10-17T00:00:11.831Z,99.99
2018-10-17T00:01:11.929Z,99.99
2018-10-17T00:02:11.733Z,99.99
2018-10-17T00:03:11.685Z,99.99
2018-10-17T00:04:11.637Z,99.99
2018-10-17T00:05:11.681Z,99.99
2018-10-17T00:06:11.547Z,99.99
2018-10-17T00:07:11.590Z,99.99
2018-10-17T00:08:11.452Z,99.99
2018-10-17T00:09:11.415Z,99.99
2018-10-17T00:10:11.369Z,99.99
2018-10-17T00:11:11.337Z,99.99
2018-10-17T00:12:11.266Z,99.99
2018-10-17T00:13:11.279Z,99.99
2018-10-17T00:14:11.174Z,99.99
2018-10-17T00:15:11.139Z,99.99
2018-10-17T00:16:11.083Z,99.99
2018-10-17T00:17:11.061Z,99.99
2018-10-17T00:18:10.988Z,99.99
2018-10-17T00:19:11.001Z,99.99
2018-10-17T00:20:10.896Z,99.99
2018-10-17T00:21:10.855Z,99.99
2018-10-17T00:22:10.804Z,99.99
2018-10-17T00:23:10.767Z,99.99
2018-10-17T00:24:10.711Z,99.99
2018-10-17T00:25:10.685Z,99.99
2018-10-17T00:26:10.618Z,99.99
2018-10-17T00:27:10.571Z,99.99
2018-10-17T00:28:10.526Z,99.99
2018-10-17T00:29:10.542Z,99.99
2018-10-17T00:30:10.437Z,99.99
2018-10-17T00:31:10.565Z,99.99
2018-10-17T00:32:10.341Z,99.99
2018-10-17T00:33:10.294Z,99.99
2018-10-17T00:34:10.248Z,99.99
2018-10-17T00:35:10.260Z,99.99
2018-10-17T00:36:10.155Z,99.99
2018-10-17T00:37:10.189Z,99.99
2018-10-17T00:38:10.063Z,99.99
2018-10-17T00:39:10.017Z,99.99
2018-10-17T00:40:10.096Z,99.99
2018-10-17T00:41:10.027Z,99.99
2018-10-17T00:42:09.878Z,99.99
2018-10-17T00:43:10.069Z,99.99
2018-10-17T00:44:09.785Z,99.99
2018-10-17T00:45:09.740Z,99.99
2018-10-17T00:46:09.694Z,99.99
2018-10-17T00:47:09.772Z,99.99
2018-10-17T00:48:09.604Z,99.99
2018-10-17T00:49:09.621Z,99.99
2018-10-17T00:50:09.511Z,99.99
2018-10-17T00:51:09.473Z,99.99
2018-10-17T00:52:09.520Z,99.99
2018-10-17T00:53:09.478Z,99.99
2018-10-17T00:54:09.324Z,99.99
2018-10-17T00:55:09.347Z,99.99
2018-10-17T00:56:09.231Z,99.99
2018-10-17T00:57:09.185Z,99.99
2018-10-17T00:58:09.139Z,99.99
2018-10-17T00:59:09.159Z,99.99
2018-10-17T01:00:09.046Z,99.99
2018-10-17T01:01:09.061Z,99.99
2018-10-17T01:02:08.980Z,99.99
2018-10-17T01:03:08.908Z,99.99
2018-10-17T01:04:08.861Z,99.99
2018-10-17T01:05:08.939Z,99.99
2018-10-17T01:06:08.769Z,99.99
2018-10-17T01:07:08.771Z,99.99
2018-10-17T01:08:08.679Z,99.99
2018-10-17T01:09:08.630Z,99.99
2018-10-17T01:10:08.594Z,99.99
2018-10-17T01:11:08.666Z,99.99
2018-10-17T01:12:08.494Z,99.99
2018-10-17T01:13:08.544Z,99.99
2018-10-17T01:14:08.399Z,99.99
2018-10-17T01:15:08.362Z,99.99
2018-10-17T01:16:08.307Z,99.99
2018-10-17T01:17:08.329Z,99.99
2018-10-17T01:18:08.215Z,99.99
2018-10-17T01:19:08.310Z,99.99
2018-10-17T01:20:08.122Z,99.99
2018-10-17T01:21:08.077Z,99.99
2018-10-17T01:22:08.029Z,99.99
2018-10-17T01:23:08.073Z,99.99
2018-10-17T01:24:07.936Z,99.99
2018-10-17T01:25:07.992Z,99.99
2018-10-17T01:26:07.843Z,99.99
2018-10-17T01:27:07.797Z,99.99
2018-10-17T01:28:07.752Z,99.99
2018-10-17T01:29:07.725Z,99.99
2018-10-17T01:30:07.670Z,99.99
2018-10-17T01:31:07.684Z,99.99
2018-10-17T01:32:07.568Z,99.99
2018-10-17T01:33:07.520Z,99.99
2018-10-17T01:34:07.474Z,99.99
2018-10-17T01:35:07.483Z,99.99
2018-10-17T01:36:07.381Z,99.99
2018-10-17T01:37:07.417Z,99.99
2018-10-17T01:38:07.289Z,99.99
2018-10-17T01:39:07.243Z,99.99
2018-10-17T01:40:07.303Z,99.99
2018-10-17T01:41:07.222Z,99.99
2018-10-17T01:42:07.104Z,99.99
2018-10-17T01:43:07.114Z,99.99
2018-10-17T01:44:07.014Z,99.99
2018-10-17T01:45:06.965Z,99.99
2018-10-17T01:46:06.919Z,99.99
2018-10-17T01:47:06.957Z,99.99
2018-10-17T01:48:06.828Z,99.99
2018-10-17T01:49:06.785Z,99.99
2018-10-17T01:50:06.733Z,99.99
2018-10-17T01:51:06.686Z,99.99
2018-10-17T01:52:06.741Z,99.99
2018-10-17T01:53:06.635Z,99.99
2018-10-17T01:54:06.550Z,99.99
2018-10-17T01:55:06.544Z,99.99
2018-10-17T01:56:06.456Z,99.99
2018-10-17T01:57:06.409Z,99.99
2018-10-17T01:58:06.362Z,99.99
2018-10-17T01:59:06.354Z,99.99
2018-10-17T02:00:06.270Z,99.99
2018-10-17T02:01:06.228Z,99.99
2018-10-17T02:02:06.177Z,99.99
2018-10-17T02:03:06.131Z,99.99
2018-10-17T02:04:06.085Z,99.99
2018-10-17T02:05:06.095Z,99.99
2018-10-17T02:06:05.992Z,99.99
2018-10-17T02:07:06.026Z,99.99
2018-10-17T02:08:05.900Z,99.99
2018-10-17T02:09:05.856Z,99.99
2018-10-17T02:10:05.820Z,99.99
2018-10-17T02:11:05.785Z,99.99
2018-10-17T02:12:05.715Z,99.99
2018-10-17T02:13:05.716Z,99.99
2018-10-17T02:14:05.622Z,99.99
2018-10-17T02:15:05.577Z,99.99
2018-10-17T02:16:05.531Z,99.99
2018-10-17T02:17:05.487Z,99.99
2018-10-17T02:18:05.438Z,99.99
2018-10-17T02:19:05.477Z,99.99
2018-10-17T02:20:05.346Z,99.99
2018-10-17T02:21:05.301Z,99.99
2018-10-17T02:22:05.259Z,99.99
2018-10-17T02:23:05.298Z,99.99
2018-10-17T02:24:05.161Z,99.99
2018-10-17T02:25:05.130Z,99.99
2018-10-17T02:26:05.069Z,99.99
2018-10-17T02:27:05.022Z,99.99
2018-10-17T02:28:04.977Z,99.99
2018-10-17T02:29:05.005Z,99.99
2018-10-17T02:30:04.908Z,99.99
2018-10-17T02:31:04.870Z,99.99
2018-10-17T02:32:04.792Z,99.99
2018-10-17T02:33:04.753Z,99.99
2018-10-17T02:34:04.700Z,99.99
2018-10-17T02:35:04.698Z,99.99
2018-10-17T02:36:04.608Z,99.99
2018-10-17T02:37:04.687Z,99.99
2018-10-17T02:38:04.517Z,99.99
2018-10-17T02:39:04.469Z,99.99
2018-10-17T02:40:04.424Z,99.99
2018-10-17T02:41:04.529Z,99.99
2018-10-17T02:42:04.332Z,99.99
2018-10-17T02:43:04.449Z,99.99
2018-10-17T02:44:04.240Z,99.99
2018-10-17T02:45:04.193Z,99.99
2018-10-17T02:46:04.147Z,99.99
2018-10-17T02:47:04.153Z,99.99
2018-10-17T02:48:04.055Z,99.99
2018-10-17T02:49:04.067Z,99.99
2018-10-17T02:50:03.980Z,99.99
2018-10-17T02:51:03.919Z,99.99
2018-10-17T02:52:03.872Z,99.99
2018-10-17T02:53:03.855Z,99.99
2018-10-17T02:54:03.779Z,99.99
2018-10-17T02:55:03.831Z,99.99
2018-10-17T02:56:03.692Z,99.99
2018-10-17T02:57:03.642Z,99.99
2018-10-17T02:58:03.697Z,99.99
2018-10-17T02:59:03.713Z,99.99
2018-10-17T03:00:03.503Z,99.99
2018-10-17T03:01:03.575Z,99.99
2018-10-17T03:02:03.414Z,99.99
2018-10-17T03:03:03.364Z,99.99
2018-10-17T03:04:03.518Z,99.99
2018-10-17T03:05:03.287Z,99.99
2018-10-17T03:06:03.226Z,99.99
2018-10-17T03:07:03.285Z,99.99
2018-10-17T03:08:03.134Z,99.99
2018-10-17T03:09:03.088Z,99.99
2018-10-17T03:10:03.041Z,99.99
2018-10-17T03:11:03.018Z,99.99
2018-10-17T03:12:02.948Z,99.99
2018-10-17T03:13:02.964Z,99.99
2018-10-17T03:14:02.856Z,99.99
2018-10-17T03:15:02.913Z,99.99
2018-10-17T03:16:02.763Z,99.99
2018-10-17T03:17:02.843Z,99.99
2018-10-17T03:18:02.670Z,99.99
2018-10-17T03:19:02.694Z,99.99
2018-10-17T03:20:02.595Z,99.99
2018-10-17T03:21:02.532Z,99.99
2018-10-17T03:22:02.487Z,99.99
2018-10-17T03:23:02.469Z,99.99
2018-10-17T03:24:02.393Z,99.99
2018-10-17T03:25:02.405Z,99.99
2018-10-17T03:26:02.306Z,99.99
2018-10-17T03:27:02.256Z,99.99
2018-10-17T03:28:02.300Z,99.99
2018-10-17T03:29:02.234Z,99.99
2018-10-17T03:30:02.116Z,99.99
2018-10-17T03:31:02.105Z,99.99
2018-10-17T03:32:02.023Z,99.99
2018-10-17T03:33:02.177Z,99.99
2018-10-17T03:34:01.931Z,99.99
2018-10-17T03:35:01.966Z,99.99
2018-10-17T03:36:01.910Z,99.99
2018-10-17T03:37:01.825Z,99.99
2018-10-17T03:38:01.745Z,99.99
2018-10-17T03:39:01.699Z,99.99
2018-10-17T03:40:01.660Z,99.99
2018-10-17T03:41:01.728Z,99.99
2018-10-17T03:42:01.560Z,99.99
2018-10-17T03:43:01.597Z,99.99
2018-10-17T03:44:01.522Z,99.99
2018-10-17T03:45:01.522Z,99.99
2018-10-17T03:46:01.375Z,99.99
2018-10-17T03:47:01.412Z,99.99
2018-10-17T03:48:01.290Z,99.99
2018-10-17T03:49:01.287Z,99.99
2018-10-17T03:50:01.296Z,99.99
2018-10-17T03:51:01.149Z,99.99
2018-10-17T03:52:01.100Z,99.99
2018-10-17T03:53:01.073Z,99.99
2018-10-17T03:54:01.004Z,99.99
2018-10-17T03:55:01.027Z,99.99
2018-10-17T03:56:00.912Z,99.99
2018-10-17T03:57:00.865Z,99.99
2018-10-17T03:58:00.820Z,99.99
2018-10-17T03:59:00.799Z,99.99
2018-10-17T04:00:00.727Z,99.99
2018-10-17T04:01:00.706Z,99.99
2018-10-17T04:02:00.635Z,99.99
2018-10-17T04:03:00.725Z,99.99
2018-10-17T04:04:00.542Z,99.99
2018-10-17T04:05:00.500Z,99.99
2018-10-17T04:06:00.448Z,99.99
2018-10-17T04:07:00.429Z,99.99
2018-10-17T04:08:00.357Z,99.99
2018-10-17T04:09:00.412Z,99.99
2018-10-17T04:10:00.264Z,99.99
2018-10-17T04:11:00.274Z,99.99
2018-10-17T04:12:00.171Z,99.99
2018-10-17T04:13:00.178Z,99.99
2018-10-17T04:14:00.078Z,99.99
2018-10-17T04:15:00.032Z,99.99
2018-10-17T04:15:59.985Z,99.99
2018-10-17T04:16:59.987Z,99.99
2018-10-17T04:17:59.893Z,99.99
2018-10-17T04:18:59.916Z,99.99
2018-10-17T04:19:59.805Z,99.99
2018-10-17T04:20:59.758Z,99.99
2018-10-17T04:21:59.708Z,99.99
2018-10-17T04:22:59.700Z,99.99
2018-10-17T04:23:59.616Z,99.99
2018-10-17T04:24:59.629Z,99.99
2018-10-17T04:25:59.523Z,99.99
2018-10-17T04:26:59.480Z,99.99
2018-10-17T04:27:59.432Z,99.99
2018-10-17T04:28:59.441Z,99.99
2018-10-17T04:29:59.337Z,99.99
2018-10-17T04:30:59.300Z,99.99
2018-10-17T04:31:59.253Z,99.99
2018-10-17T04:32:59.199Z,99.99
2018-10-17T04:33:59.153Z,99.99
2018-10-17T04:34:59.125Z,99.99
2018-10-17T04:35:59.116Z,99.99
2018-10-17T04:36:59.027Z,99.99
2018-10-17T04:37:58.967Z,99.99
2018-10-17T04:38:58.921Z,99.99
2018-10-17T04:39:58.874Z,99.99
2018-10-17T04:40:58.890Z,99.99
2018-10-17T04:41:58.784Z,99.99
2018-10-17T04:42:58.749Z,99.99
2018-10-17T04:43:58.689Z,99.99
2018-10-17T04:44:58.643Z,99.99
2018-10-17T04:45:58.600Z,99.99
2018-10-17T04:46:58.578Z,99.99
2018-10-17T04:47:58.505Z,99.99
2018-10-17T04:48:58.475Z,99.99
2018-10-17T04:49:58.412Z,99.99
2018-10-17T04:50:58.366Z,99.99
2018-10-17T04:51:58.320Z,99.99
2018-10-17T04:52:58.278Z,99.99
2018-10-17T04:53:58.229Z,99.99
2018-10-17T04:54:58.194Z,99.99
2018-10-17T04:55:58.137Z,99.99
2018-10-17T04:56:58.189Z,99.99
2018-10-17T04:57:58.045Z,99.99
2018-10-17T04:58:58.048Z,99.99
2018-10-17T04:59:57.953Z,99.99
2018-10-17T05:00:57.956Z,99.99
2018-10-17T05:01:57.859Z,99.99
2018-10-17T05:02:57.811Z,99.99
2018-10-17T05:03:57.764Z,99.99
2018-10-17T05:04:57.765Z,99.99
2018-10-17T05:05:57.672Z,99.99
2018-10-17T05:06:57.743Z,99.99
2018-10-17T05:07:57.581Z,99.99
2018-10-17T05:08:57.634Z,99.99
2018-10-17T05:09:57.487Z,99.99
2018-10-17T05:10:57.453Z,99.99
2018-10-17T05:11:57.395Z,99.99
2018-10-17T05:12:57.447Z,99.99
2018-10-17T05:13:57.302Z,99.99
2018-10-17T05:14:57.256Z,99.99
2018-10-17T05:15:57.210Z,99.99
2018-10-17T05:16:57.169Z,99.99
2018-10-17T05:17:57.117Z,99.99
2018-10-17T05:18:57.156Z,99.99
2018-10-17T05:19:57.025Z,99.99
2018-10-17T05:20:56.979Z,99.99
2018-10-17T05:21:56.932Z,99.99
2018-10-17T05:22:56.930Z,99.99
2018-10-17T05:23:56.840Z,99.99
2018-10-17T05:24:56.849Z,99.99
2018-10-17T05:25:56.747Z,99.99
2018-10-17T05:26:56.801Z,99.99
2018-10-17T05:27:56.656Z,99.99
2018-10-17T05:28:56.703Z,99.99
2018-10-17T05:29:56.737Z,99.99
2018-10-17T05:30:56.525Z,99.99
2018-10-17T05:31:56.469Z,99.99
2018-10-17T05:32:56.422Z,99.99
2018-10-17T05:33:56.376Z,99.99
2018-10-17T05:34:56.337Z,99.99
2018-10-17T05:35:56.284Z,99.99
2018-10-17T05:36:56.270Z,99.99
2018-10-17T05:37:56.260Z,99.99
2018-10-17T05:38:56.145Z,99.99
2018-10-17T05:39:56.098Z,99.99
2018-10-17T05:40:56.109Z,99.99
2018-10-17T05:41:56.006Z,99.99
2018-10-17T05:42:55.996Z,99.99
2018-10-17T05:43:55.912Z,99.99
2018-10-17T05:44:55.866Z,99.99
2018-10-17T05:45:55.820Z,99.99
2018-10-17T05:46:55.834Z,99.99
2018-10-17T05:47:55.730Z,99.99
2018-10-17T05:48:55.744Z,99.99
2018-10-17T05:49:55.634Z,99.99
2018-10-17T05:50:55.588Z,99.99
2018-10-17T05:51:55.542Z,99.99
2018-10-17T05:52:55.550Z,99.99
2018-10-17T05:53:55.449Z,99.99
2018-10-17T05:54:55.415Z,99.99
2018-10-17T05:55:55.359Z,99.99
2018-10-17T05:56:55.310Z,99.99
2018-10-17T05:57:55.263Z,99.99
2018-10-17T05:58:55.235Z,99.99
2018-10-17T05:59:55.174Z,99.99
2018-10-17T06:00:55.180Z,99.99
2018-10-17T06:01:55.139Z,99.99
2018-10-17T06:02:55.134Z,99.99
2018-10-17T06:03:54.990Z,99.99
2018-10-17T06:04:54.989Z,99.99
2018-10-17T06:05:54.899Z,99.99
2018-10-17T06:06:54.875Z,99.99
2018-10-17T06:07:54.839Z,99.99
2018-10-17T06:08:54.753Z,99.99
2018-10-17T06:09:54.708Z,99.99
2018-10-17T06:10:54.663Z,99.99
2018-10-17T06:11:54.615Z,99.99
2018-10-17T06:12:54.612Z,99.99
2018-10-17T06:13:54.522Z,99.99
2018-10-17T06:14:54.476Z,99.99
2018-10-17T06:15:54.431Z,99.99
2018-10-17T06:16:54.429Z,99.99
2018-10-17T06:17:54.337Z,99.99
2018-10-17T06:18:54.344Z,99.99
2018-10-17T06:19:54.244Z,99.99
2018-10-17T06:20:54.200Z,99.99
2018-10-17T06:21:54.152Z,99.99
2018-10-17T06:22:54.142Z,99.99
2018-10-17T06:23:54.060Z,99.99
2018-10-17T06:24:54.045Z,99.99
2018-10-17T06:25:53.967Z,99.99
2018-10-17T06:26:54.021Z,99.99
2018-10-17T06:27:53.876Z,99.99
2018-10-17T06:28:53.893Z,99.99
2018-10-17T06:29:53.781Z,99.99
2018-10-17T06:30:53.742Z,99.99
2018-10-17T06:31:53.689Z,99.99
2018-10-17T06:32:53.642Z,99.99
2018-10-17T06:33:53.628Z,99.99
2018-10-17T06:34:53.624Z,99.99
2018-10-17T06:35:53.504Z,99.99
2018-10-17T06:36:53.462Z,99.99
2018-10-17T06:37:53.412Z,99.99
2018-10-17T06:38:53.466Z,99.99
2018-10-17T06:39:53.319Z,99.99
2018-10-17T06:40:53.335Z,99.99
2018-10-17T06:41:53.229Z,99.99
2018-10-17T06:42:53.209Z,99.99
2018-10-17T06:43:53.176Z,99.99
2018-10-17T06:44:53.197Z,99.99
2018-10-17T06:45:53.043Z,99.99
2018-10-17T06:46:53.008Z,99.99
2018-10-17T06:47:52.950Z,99.99
2018-10-17T06:48:52.994Z,99.99
2018-10-17T06:49:52.857Z,99.99
2018-10-17T06:50:52.811Z,99.99
2018-10-17T06:51:52.765Z,99.99
2018-10-17T06:52:52.721Z,99.99
2018-10-17T06:53:52.748Z,99.99
2018-10-17T06:54:52.652Z,99.99
2018-10-17T06:55:52.580Z,99.99
2018-10-17T06:56:52.534Z,99.99
2018-10-17T06:57:52.488Z,99.99
2018-10-17T06:58:52.455Z,99.99
2018-10-17T06:59:52.395Z,99.99
2018-10-17T07:00:52.374Z,99.99
2018-10-17T07:01:52.410Z,99.99
2018-10-17T07:02:52.257Z,99.99
2018-10-17T07:03:52.210Z,99.99
2018-10-17T07:04:52.185Z,99.99
2018-10-17T07:05:52.118Z,99.99
2018-10-17T07:06:52.097Z,99.99
2018-10-17T07:07:52.025Z,99.99
2018-10-17T07:08:51.979Z,99.99
2018-10-17T07:09:51.933Z,99.99
2018-10-17T07:10:51.889Z,99.99
2018-10-17T07:11:51.840Z,99.99
2018-10-17T07:12:51.840Z,99.99
2018-10-17T07:13:51.748Z,99.99
2018-10-17T07:14:51.703Z,99.99
2018-10-17T07:15:51.746Z,99.99
2018-10-17T07:16:51.657Z,99.99
2018-10-17T07:17:51.563Z,99.99
2018-10-17T07:18:51.547Z,99.99
2018-10-17T07:19:51.470Z,99.99
2018-10-17T07:20:51.424Z,99.99
2018-10-17T07:21:51.378Z,99.99
2018-10-17T07:22:51.337Z,99.99
2018-10-17T07:23:51.285Z,99.99
2018-10-17T07:24:51.245Z,99.99
2018-10-17T07:25:51.193Z,99.99
2018-10-17T07:26:51.247Z,99.99
2018-10-17T07:27:51.100Z,99.99
2018-10-17T07:28:51.099Z,99.99
2018-10-17T07:29:51.242Z,99.99
2018-10-17T07:30:50.964Z,99.99
2018-10-17T07:31:50.915Z,99.99
2018-10-17T07:32:50.869Z,99.99
2018-10-17T07:33:50.823Z,99.99
2018-10-17T07:34:50.776Z,99.99
2018-10-17T07:35:50.845Z,99.99
2018-10-17T07:36:50.685Z,99.99
2018-10-17T07:37:50.643Z,99.99
2018-10-17T07:38:50.693Z,99.99
2018-10-17T07:39:50.546Z,99.99
2018-10-17T07:40:50.503Z,99.99
2018-10-17T07:41:50.454Z,99.99
2018-10-17T07:42:50.408Z,99.99
2018-10-17T07:43:50.361Z,99.99
2018-10-17T07:44:50.415Z,99.99
2018-10-17T07:45:50.270Z,99.99
2018-10-17T07:46:50.223Z,99.99
2018-10-17T07:47:50.176Z,99.99
2018-10-17T07:48:50.134Z,99.99
2018-10-17T07:49:50.085Z,99.99
2018-10-17T07:50:50.038Z,99.99
2018-10-17T07:51:50.111Z,99.99
2018-10-17T07:52:49.946Z,99.99
2018-10-17T07:53:49.900Z,99.99
2018-10-17T07:54:49.854Z,99.99
2018-10-17T07:55:49.807Z,99.99
2018-10-17T07:56:49.861Z,99.99
2018-10-17T07:57:49.714Z,99.99
2018-10-17T07:58:49.670Z,99.99
2018-10-17T07:59:49.637Z,99.99
2018-10-17T08:00:49.577Z,99.99
2018-10-17T08:01:49.530Z,99.99
2018-10-17T08:02:49.484Z,99.99
2018-10-17T08:03:49.439Z,99.99
2018-10-17T08:04:49.392Z,99.99
2018-10-17T08:05:49.347Z,99.99
2018-10-17T08:06:49.385Z,99.99
2018-10-17T08:07:49.253Z,99.99
2018-10-17T08:08:49.207Z,99.99
2018-10-17T08:09:49.160Z,99.99
2018-10-17T08:10:49.114Z,99.99
2018-10-17T08:11:49.071Z,99.99
2018-10-17T08:12:49.022Z,99.99
2018-10-17T08:13:48.976Z,99.99
2018-10-17T08:14:49.030Z,99.99
2018-10-17T08:15:48.883Z,99.99
2018-10-17T08:16:48.837Z,99.99
2018-10-17T08:17:48.792Z,99.99
2018-10-17T08:18:48.745Z,99.99
2018-10-17T08:19:48.698Z,99.99
2018-10-17T08:20:48.860Z,99.99
2018-10-17T08:21:48.605Z,99.99
2018-10-17T08:22:48.559Z,99.99
2018-10-17T08:23:48.513Z,99.99
2018-10-17T08:24:48.466Z,99.99
2018-10-17T08:25:48.439Z,99.99
2018-10-17T08:26:48.475Z,99.99
2018-10-17T08:27:48.328Z,99.99
2018-10-17T08:28:48.282Z,99.99
2018-10-17T08:29:48.236Z,99.99
2018-10-17T08:30:48.189Z,99.99
2018-10-17T08:31:48.143Z,99.99
2018-10-17T08:32:48.197Z,99.99
2018-10-17T08:33:48.050Z,99.99
2018-10-17T08:34:48.004Z,99.99
2018-10-17T08:35:48.119Z,99.99
2018-10-17T08:36:48.354Z,99.99
2018-10-17T08:37:48.370Z,99.99
2018-10-17T08:38:47.819Z,99.99
2018-10-17T08:39:47.779Z,99.99
2018-10-17T08:40:47.773Z,99.99
2018-10-17T08:41:47.683Z,99.99
2018-10-17T08:42:47.634Z,99.99
2018-10-17T08:43:47.589Z,99.99
2018-10-17T08:44:47.541Z,99.99
2018-10-17T08:45:47.495Z,99.99
2018-10-17T08:46:47.461Z,99.99
2018-10-17T08:47:47.404Z,99.99
2018-10-17T08:48:47.357Z,99.99
2018-10-17T08:49:47.312Z,99.99
2018-10-17T08:50:47.354Z,99.99
2018-10-17T08:51:47.218Z,99.99
2018-10-17T08:52:47.172Z,99.99
2018-10-17T08:53:47.126Z,99.99
2018-10-17T08:54:47.079Z,99.99
2018-10-17T08:55:47.036Z,99.99
2018-10-17T08:56:46.986Z,99.99
2018-10-17T08:57:46.971Z,99.99
2018-10-17T08:58:46.894Z,99.99
2018-10-17T08:59:46.848Z,99.99
2018-10-17T09:00:46.803Z,99.99
2018-10-17T09:01:46.755Z,99.99
2018-10-17T09:02:46.712Z,99.99
2018-10-17T09:03:46.663Z,99.99
2018-10-17T09:04:46.616Z,99.99
2018-10-17T09:05:46.570Z,99.99
2018-10-17T09:06:46.527Z,99.99
2018-10-17T09:07:46.559Z,99.99
2018-10-17T09:08:46.433Z,99.99
2018-10-17T09:09:46.386Z,99.99
2018-10-17T09:10:46.338Z,99.99
2018-10-17T09:11:46.294Z,99.99
2018-10-17T09:12:46.247Z,99.99
2018-10-17T09:13:46.309Z,99.99
2018-10-17T09:14:46.155Z,99.99
2018-10-17T09:15:46.108Z,99.99
2018-10-17T09:16:46.163Z,99.99
2018-10-17T09:17:46.015Z,99.99
2018-10-17T09:18:45.969Z,99.99
2018-10-17T09:19:46.133Z,99.99
2018-10-17T09:20:46.156Z,99.99
2018-10-17T09:21:46.158Z,99.99
2018-10-17T09:22:45.891Z,99.99
2018-10-17T09:23:45.737Z,99.99
2018-10-17T09:24:45.691Z,99.99
2018-10-17T09:25:45.777Z,99.99
2018-10-17T09:26:45.599Z,99.99
2018-10-17T09:27:45.554Z,99.99
2018-10-17T09:28:45.508Z,99.99
2018-10-17T09:29:45.460Z,99.99
2018-10-17T09:30:45.519Z,99.99
2018-10-17T09:31:45.367Z,99.99
2018-10-17T09:32:45.322Z,99.99
2018-10-17T09:33:45.275Z,99.99
2018-10-17T09:34:45.230Z,99.99
2018-10-17T09:35:45.322Z,99.99
2018-10-17T09:36:45.137Z,99.99
2018-10-17T09:37:45.191Z,99.99
2018-10-17T09:38:45.045Z,99.99
2018-10-17T09:39:45.002Z,99.99
2018-10-17T09:40:44.952Z,99.99
2018-10-17T09:41:44.908Z,99.99
2018-10-17T09:42:44.891Z,99.99
2018-10-17T09:43:44.822Z,99.99
2018-10-17T09:44:44.772Z,99.99
2018-10-17T09:45:44.726Z,99.99
2018-10-17T09:46:44.686Z,99.99
2018-10-17T09:47:44.631Z,99.99
2018-10-17T09:48:44.586Z,99.99
2018-10-17T09:49:44.545Z,99.99
2018-10-17T09:50:44.496Z,99.99
2018-10-17T09:51:44.448Z,99.99
2018-10-17T09:52:44.403Z,99.99
2018-10-17T09:53:44.354Z,99.99
2018-10-17T09:54:44.308Z,99.99
2018-10-17T09:55:44.265Z,99.99
2018-10-17T09:56:44.225Z,99.99
2018-10-17T09:57:44.171Z,99.99
2018-10-17T09:58:44.123Z,99.99
2018-10-17T09:59:44.077Z,99.99
2018-10-17T10:00:44.134Z,99.99
2018-10-17T10:01:43.986Z,99.99
2018-10-17T10:02:43.949Z,99.99
2018-10-17T10:03:43.895Z,99.99
2018-10-17T10:04:43.846Z,99.99
2018-10-17T10:05:43.801Z,99.99
2018-10-17T10:06:43.861Z,99.99
2018-10-17T10:07:43.707Z,99.99
2018-10-17T10:08:43.661Z,99.99
2018-10-17T10:09:43.615Z,99.99
2018-10-17T10:10:43.628Z,99.99
2018-10-17T10:11:43.526Z,99.99
2018-10-17T10:12:43.480Z,99.99
2018-10-17T10:13:43.451Z,99.99
2018-10-17T10:14:43.395Z,99.99
2018-10-17T10:15:43.343Z,99.99
2018-10-17T10:16:43.310Z,99.99
2018-10-17T10:17:43.328Z,99.99
2018-10-17T10:18:43.304Z,99.99
2018-10-17T10:19:43.167Z,99.99
2018-10-17T10:20:43.113Z,99.99
2018-10-17T10:21:43.069Z,99.99
2018-10-17T10:22:43.037Z,99.99
2018-10-17T10:23:43.041Z,99.99
2018-10-17T10:24:42.940Z,99.99
2018-10-17T10:25:42.887Z,99.99
2018-10-17T10:26:42.844Z,99.99
2018-10-17T10:27:42.798Z,99.99
2018-10-17T10:28:42.816Z,99.99
2018-10-17T10:29:42.779Z,99.99
2018-10-17T10:30:42.662Z,99.99
2018-10-17T10:31:42.617Z,99.99
2018-10-17T10:32:42.572Z,99.99
2018-10-17T10:33:42.583Z,99.99
2018-10-17T10:34:42.484Z,99.99
2018-10-17T10:35:42.438Z,99.99
2018-10-17T10:36:42.405Z,99.99
2018-10-17T10:37:42.348Z,99.99
2018-10-17T10:38:42.304Z,99.99
2018-10-17T10:39:42.258Z,99.99
2018-10-17T10:40:42.258Z,99.99
2018-10-17T10:41:42.171Z,99.99
2018-10-17T10:42:42.123Z,99.99
2018-10-17T10:43:42.080Z,99.99
2018-10-17T10:44:42.035Z,99.99
2018-10-17T10:45:42.095Z,99.99
2018-10-17T10:46:41.945Z,99.99
2018-10-17T10:47:41.903Z,99.99
2018-10-17T10:48:41.863Z,99.99
2018-10-17T10:49:41.809Z,99.99
2018-10-17T10:50:41.765Z,99.99
2018-10-17T10:51:41.856Z,99.99
2018-10-17T10:52:41.693Z,99.99
2018-10-17T10:53:41.630Z,99.99
2018-10-17T10:54:41.586Z,99.99
2018-10-17T10:55:41.541Z,99.99
2018-10-17T10:56:41.497Z,99.99
2018-10-17T10:57:41.452Z,99.99
2018-10-17T10:58:41.531Z,99.60
2018-10-17T10:59:41.452Z,99.79
2018-10-17T11:00:41.426Z,98.97
2018-10-17T11:01:41.277Z,97.91
2018-10-17T11:02:41.231Z,98.25
2018-10-17T11:03:41.186Z,98.58
2018-10-17T11:04:41.182Z,97.91
2018-10-17T11:05:41.222Z,98.05
2018-10-17T11:06:41.055Z,99.11
2018-10-17T11:07:41.011Z,98.05
2018-10-17T11:08:40.966Z,98.10
2018-10-17T11:09:40.922Z,97.04
2018-10-17T11:10:40.881Z,97.04
2018-10-17T11:11:40.839Z,95.64
2018-10-17T11:12:40.829Z,95.73
2018-10-17T11:13:40.746Z,94.47
2018-10-17T11:14:40.876Z,94.57
2018-10-17T11:15:40.663Z,94.57
2018-10-17T11:16:40.614Z,94.42
2018-10-17T11:17:40.575Z,93.55
2018-10-17T11:18:40.529Z,92.68
2018-10-17T11:19:40.486Z,94.04
2018-10-17T11:20:40.439Z,94.42
2018-10-17T11:21:40.407Z,93.26
2018-10-17T11:22:40.352Z,92.87
2018-10-17T11:23:40.315Z,92.68
2018-10-17T11:24:40.269Z,91.75
2018-10-17T11:25:40.224Z,91.47
2018-10-17T11:26:40.190Z,91.47
2018-10-17T11:27:40.144Z,92.24
2018-10-17T11:28:40.096Z,92.24
2018-10-17T11:29:40.048Z,92.63
2018-10-17T11:30:40.015Z,91.47
2018-10-17T11:31:39.979Z,90.06
2018-10-17T11:32:39.920Z,89.53
2018-10-17T11:33:39.877Z,90.88
2018-10-17T11:34:39.831Z,91.08
2018-10-17T11:35:39.792Z,91.56
2018-10-17T11:36:39.846Z,92.53
2018-10-17T11:37:39.711Z,91.51
2018-10-17T11:38:39.662Z,91.22
2018-10-17T11:39:39.617Z,90.44
2018-10-17T11:40:39.729Z,90.06
2018-10-17T11:41:39.627Z,89.82
2018-10-17T11:42:39.487Z,90.98
2018-10-17T11:43:39.443Z,91.66
2018-10-17T11:44:39.401Z,91.75
2018-10-17T11:45:39.368Z,91.75
2018-10-17T11:46:39.325Z,91.75
2018-10-17T11:47:39.361Z,92.05
2018-10-17T11:48:39.237Z,91.47
2018-10-17T11:49:39.189Z,92.05
2018-10-17T11:50:39.230Z,91.95
2018-10-17T11:51:39.098Z,91.95
2018-10-17T11:52:39.061Z,92.29
2018-10-17T11:53:39.033Z,91.90
2018-10-17T11:54:38.966Z,93.07
2018-10-17T11:55:38.930Z,92.77
2018-10-17T11:56:38.888Z,92.68
2018-10-17T11:57:38.846Z,93.26
2018-10-17T11:58:38.805Z,93.35
2018-10-17T11:59:38.817Z,92.77
2018-10-17T12:00:38.817Z,93.65
2018-10-17T12:01:38.672Z,93.16
2018-10-17T12:02:38.624Z,93.74
2018-10-17T12:03:38.696Z,94.04
2018-10-17T12:04:38.692Z,94.13
2018-10-17T12:05:38.822Z,94.90
2018-10-17T12:06:38.559Z,95.49
2018-10-17T12:07:38.404Z,95.00
2018-10-17T12:08:38.365Z,94.71
2018-10-17T12:09:38.314Z,94.85
2018-10-17T12:10:38.272Z,94.85
2018-10-17T12:11:38.257Z,93.26
2018-10-17T12:12:38.287Z,92.96
2018-10-17T12:13:38.140Z,92.48
2018-10-17T12:14:38.099Z,92.09
2018-10-17T12:15:38.058Z,92.77
2018-10-17T12:16:38.016Z,92.67
2018-10-17T12:17:37.975Z,91.51
2018-10-17T12:18:37.926Z,91.31
2018-10-17T12:19:37.927Z,91.12
2018-10-17T12:20:37.848Z,91.12
2018-10-17T12:21:37.945Z,90.34
2018-10-17T12:22:37.759Z,91.12
2018-10-17T12:23:37.712Z,90.83
2018-10-17T12:24:37.662Z,91.12
2018-10-17T12:25:37.619Z,91.22
2018-10-17T12:26:37.592Z,90.93
2018-10-17T12:27:37.604Z,90.25
2018-10-17T12:28:37.625Z,91.02
2018-10-17T12:29:37.448Z,91.36
2018-10-17T12:30:37.415Z,91.17
2018-10-17T12:31:37.376Z,90.73
2018-10-17T12:32:37.323Z,90.97
2018-10-17T12:33:37.295Z,90.88
2018-10-17T12:34:37.228Z,90.44
2018-10-17T12:35:37.200Z,88.88
2018-10-17T12:36:37.155Z,89.66
2018-10-17T12:37:37.111Z,90.44
2018-10-17T12:38:37.060Z,90.82
2018-10-17T12:39:37.037Z,90.24
2018-10-17T12:40:37.223Z,89.12
2018-10-17T12:41:37.027Z,89.70
2018-10-17T12:42:36.893Z,88.83
2018-10-17T12:43:36.855Z,87.81
2018-10-17T12:44:36.800Z,86.64
2018-10-17T12:45:36.840Z,88.10
2018-10-17T12:46:36.724Z,87.32
2018-10-17T12:47:36.685Z,87.03
2018-10-17T12:48:36.748Z,86.74
2018-10-17T12:49:36.632Z,86.83
2018-10-17T12:50:36.602Z,85.28
2018-10-17T12:51:36.515Z,86.05